createdAt,value
2022-12-15T00:02:38.055Z,9.75
2022-12-15T00:05:24.088Z,8.95
2022-12-15T00:08:09.699Z,8.77
2022-12-15T00:10:55.127Z,8.75
2022-12-15T00:13:40.604Z,7.78
2022-12-15T00:16:27.035Z,9.68
2022-12-15T00:19:13.068Z,12.45
2022-12-15T00:21:58.658Z,12.75
2022-12-15T00:24:44.170Z,13.23
2022-12-15T00:27:35.249Z,10.73
2022-12-15T00:30:21.855Z,7.60
2022-12-15T00:33:07.544Z,15.98
2022-12-15T00:35:53.459Z,6.63
2022-12-15T00:38:39.080Z,8.63
2022-12-15T00:41:06.236Z,8.45
2022-12-15T00:43:35.750Z,10.18
2022-12-15T00:46:22.232Z,10.80
2022-12-15T00:48:49.849Z,10.95
2022-12-15T00:51:17.877Z,8.15
2022-12-15T00:54:04.971Z,11.18
2022-12-15T00:56:51.444Z,9.20
2022-12-15T00:59:38.055Z,7.65
2022-12-15T01:02:24.086Z,7.88
2022-12-15T01:05:10.030Z,9.15
2022-12-15T01:07:55.570Z,9.90
2022-12-15T01:10:41.214Z,9.13
2022-12-15T01:13:32.763Z,11.25
2022-12-15T01:16:20.014Z,9.80
2022-12-15T01:19:05.643Z,10.13
2022-12-15T01:21:32.745Z,10.23
2022-12-15T01:23:59.829Z,8.93
2022-12-15T01:26:26.887Z,10.85
2022-12-15T01:28:53.978Z,10.45
2022-12-15T01:31:20.988Z,9.57
2022-12-15T01:33:48.032Z,12.18
2022-12-15T01:36:15.169Z,12.07
2022-12-15T01:38:42.836Z,8.88
2022-12-15T01:41:11.214Z,8.90
2022-12-15T01:43:40.671Z,11.52
2022-12-15T01:46:22.265Z,6.55
2022-12-15T01:48:54.973Z,9.50
2022-12-15T01:51:39.474Z,9.05
2022-12-15T01:54:27.030Z,10.00
2022-12-15T01:57:01.022Z,7.97
2022-12-15T01:59:33.737Z,10.82
2022-12-15T02:02:01.722Z,7.40
2022-12-15T02:04:29.012Z,9.32
2022-12-15T02:06:56.045Z,9.18
2022-12-15T02:09:26.894Z,11.65
2022-12-15T02:11:59.690Z,11.35
2022-12-15T02:14:32.257Z,12.73
2022-12-15T02:17:07.880Z,13.65
2022-12-15T02:20:02.412Z,12.63
2022-12-15T02:23:07.651Z,12.00
2022-12-15T02:25:40.717Z,12.98
2022-12-15T02:28:10.426Z,11.95
2022-12-15T02:31:25.280Z,15.77
2022-12-15T02:34:05.991Z,14.75
2022-12-15T02:36:39.199Z,16.38
2022-12-15T02:39:06.486Z,11.45
2022-12-15T02:41:38.057Z,11.13
2022-12-15T02:44:13.603Z,14.20
2022-12-15T02:46:46.383Z,9.95
2022-12-15T02:49:31.647Z,11.75
2022-12-15T02:52:13.965Z,12.70
2022-12-15T02:54:58.510Z,11.60
2022-12-15T02:57:49.739Z,10.15
2022-12-15T03:00:17.908Z,11.77
2022-12-15T03:02:50.303Z,12.85
2022-12-15T03:05:19.380Z,10.02
2022-12-15T03:07:50.262Z,13.18
2022-12-15T03:10:18.182Z,10.05
2022-12-15T03:12:45.355Z,15.18
2022-12-15T03:15:12.599Z,12.13
2022-12-15T03:17:39.723Z,12.70
2022-12-15T03:20:07.277Z,14.43
2022-12-15T03:22:34.406Z,14.68
2022-12-15T03:25:01.450Z,11.90
2022-12-15T03:27:31.361Z,16.38
2022-12-15T03:29:58.430Z,16.88
2022-12-15T03:32:25.598Z,14.80
2022-12-15T03:34:52.652Z,16.63
2022-12-15T03:37:19.867Z,11.43
2022-12-15T03:39:47.942Z,12.18
2022-12-15T03:42:14.958Z,12.82
2022-12-15T03:44:41.957Z,17.02
2022-12-15T03:47:09.081Z,11.38
2022-12-15T03:49:36.107Z,13.40
2022-12-15T03:52:03.133Z,15.68
2022-12-15T03:54:30.379Z,15.07
2022-12-15T03:56:57.410Z,13.98
2022-12-15T03:59:24.609Z,13.88
2022-12-15T04:01:53.158Z,12.60
2022-12-15T04:04:20.288Z,11.25
2022-12-15T04:06:47.386Z,16.10
2022-12-15T04:09:14.498Z,13.70
2022-12-15T04:11:41.592Z,14.57
2022-12-15T04:14:09.643Z,13.75
2022-12-15T04:16:36.771Z,10.00
2022-12-15T04:19:22.649Z,10.15
2022-12-15T04:21:49.723Z,15.27
2022-12-15T04:24:35.343Z,10.50
2022-12-15T04:27:20.897Z,10.55
2022-12-15T04:30:06.744Z,9.52
2022-12-15T04:32:52.184Z,11.65
2022-12-15T04:35:37.948Z,13.05
2022-12-15T04:38:23.773Z,14.35
2022-12-15T04:41:09.501Z,11.00
2022-12-15T04:43:55.432Z,10.45
2022-12-15T04:46:41.046Z,11.10
2022-12-15T04:49:26.756Z,14.10
2022-12-15T04:52:12.328Z,11.90
2022-12-15T04:54:58.055Z,15.73
2022-12-15T04:57:43.696Z,7.45
2022-12-15T05:00:30.299Z,12.00
2022-12-15T05:03:29.866Z,11.20
2022-12-15T05:06:16.671Z,10.73
2022-12-15T05:09:02.258Z,12.20
2022-12-15T05:11:47.771Z,12.25
2022-12-15T05:14:33.250Z,9.52
2022-12-15T05:17:19.010Z,10.40
2022-12-15T05:20:04.814Z,11.57
2022-12-15T05:22:50.304Z,9.57
2022-12-15T05:25:36.466Z,11.68
2022-12-15T05:28:25.648Z,12.25
2022-12-15T05:31:11.283Z,9.93
2022-12-15T05:33:38.720Z,14.65
2022-12-15T05:36:06.300Z,13.25
2022-12-15T05:38:33.458Z,16.17
2022-12-15T05:41:01.024Z,16.75
2022-12-15T05:43:28.962Z,19.38
2022-12-15T05:45:56.469Z,15.15
2022-12-15T05:48:23.537Z,17.17
2022-12-15T05:50:50.702Z,14.98
2022-12-15T05:53:17.815Z,18.63
2022-12-15T05:55:46.037Z,16.38
2022-12-15T05:58:13.115Z,17.23
2022-12-15T06:00:40.246Z,14.02
2022-12-15T06:03:07.574Z,20.85
2022-12-15T06:05:34.788Z,21.65
2022-12-15T06:08:01.886Z,16.13
2022-12-15T06:10:29.014Z,23.85
2022-12-15T06:12:56.146Z,13.40
2022-12-15T06:15:23.206Z,16.30
2022-12-15T06:17:50.307Z,17.40
2022-12-15T06:20:17.451Z,24.88
2022-12-15T06:22:49.709Z,22.20
2022-12-15T06:25:19.972Z,19.38
2022-12-15T06:27:47.091Z,19.33
2022-12-15T06:30:14.342Z,17.38
2022-12-15T06:32:41.425Z,19.45
2022-12-15T06:35:08.741Z,24.17
2022-12-15T06:37:35.780Z,18.13
2022-12-15T06:40:02.833Z,16.27
2022-12-15T06:42:31.094Z,22.23
2022-12-15T06:44:58.365Z,25.52
2022-12-15T06:47:25.466Z,16.15
2022-12-15T06:49:52.590Z,17.73
2022-12-15T06:52:19.710Z,18.75
2022-12-15T06:54:46.852Z,20.23
2022-12-15T06:57:14.074Z,13.85
2022-12-15T06:59:41.249Z,19.33
2022-12-15T07:02:16.734Z,21.33
2022-12-15T07:04:44.186Z,8.45
2022-12-15T07:07:11.503Z,16.75
2022-12-15T07:09:38.734Z,14.27
2022-12-15T07:12:06.081Z,10.80
2022-12-15T07:14:33.342Z,13.70
2022-12-15T07:17:00.921Z,10.27
2022-12-15T07:19:28.172Z,10.05
2022-12-15T07:21:57.772Z,16.35
2022-12-15T07:24:30.810Z,15.75
2022-12-15T07:26:57.920Z,16.08
2022-12-15T07:29:25.401Z,13.90
2022-12-15T07:31:52.695Z,9.27
2022-12-15T07:34:22.882Z,10.48
2022-12-15T07:36:52.764Z,17.52
2022-12-15T07:39:20.162Z,12.70
2022-12-15T07:41:47.295Z,16.05
2022-12-15T07:44:16.557Z,11.23
2022-12-15T07:46:46.979Z,14.80
2022-12-15T07:49:14.104Z,13.07
2022-12-15T07:51:43.806Z,13.40
2022-12-15T07:54:11.650Z,10.05
2022-12-15T07:56:39.649Z,14.32
2022-12-15T07:59:07.451Z,10.35
2022-12-15T08:01:38.205Z,11.82
2022-12-15T08:04:06.277Z,14.55
2022-12-15T08:06:33.847Z,14.27
2022-12-15T08:09:01.135Z,11.23
2022-12-15T08:11:28.709Z,10.30
2022-12-15T08:14:04.930Z,11.38
2022-12-15T08:16:36.747Z,11.88
2022-12-15T08:19:05.639Z,14.07
2022-12-15T08:21:34.365Z,9.43
2022-12-15T08:24:03.105Z,9.18
2022-12-15T08:26:31.412Z,10.77
2022-12-15T08:29:48.748Z,10.75
2022-12-15T08:31:52.587Z,10.90
2022-12-15T08:34:20.814Z,12.23
2022-12-15T08:36:47.990Z,15.35
2022-12-15T08:39:16.984Z,14.20
2022-12-15T08:41:45.631Z,10.55
2022-12-15T08:44:12.869Z,15.40
2022-12-15T08:46:40.146Z,12.23
2022-12-15T08:49:08.791Z,10.13
2022-12-15T08:51:36.154Z,16.45
2022-12-15T08:54:03.519Z,15.48
2022-12-15T08:56:30.663Z,11.82
2022-12-15T08:59:01.486Z,11.82
2022-12-15T09:01:32.268Z,15.27
2022-12-15T09:03:59.733Z,17.17
2022-12-15T09:06:33.048Z,15.63
2022-12-15T09:11:31.693Z,14.75
2022-12-15T09:13:59.232Z,12.85
2022-12-15T09:16:28.199Z,13.77
2022-12-15T09:18:58.063Z,8.27
2022-12-15T09:21:27.221Z,17.60
2022-12-15T09:23:58.037Z,22.10
2022-12-15T09:26:25.442Z,21.50
2022-12-15T09:28:55.469Z,15.32
2022-12-15T09:31:28.907Z,21.23
2022-12-15T09:33:58.034Z,14.23
2022-12-15T09:36:28.436Z,16.15
2022-12-15T09:38:55.604Z,21.60
2022-12-15T09:41:28.126Z,19.65
2022-12-15T09:44:03.311Z,20.08
2022-12-15T09:46:57.708Z,18.17
2022-12-15T09:49:42.702Z,17.55
2022-12-15T09:52:25.998Z,14.85
2022-12-15T09:54:53.863Z,12.15
2022-12-15T09:57:27.229Z,19.15
2022-12-15T10:00:13.046Z,15.73
2022-12-15T10:03:14.152Z,10.75
2022-12-15T10:06:15.405Z,14.60
2022-12-15T10:08:56.139Z,15.13
2022-12-15T10:12:19.072Z,19.08
2022-12-15T10:14:54.919Z,17.52
2022-12-15T10:17:24.257Z,24.20
2022-12-15T10:20:13.086Z,22.23
2022-12-15T10:22:40.641Z,28.48
2022-12-15T10:25:33.515Z,18.00
2022-12-15T10:28:15.958Z,21.40
2022-12-15T10:31:12.913Z,23.85
2022-12-15T10:33:47.043Z,26.35
2022-12-15T10:36:16.905Z,20.52
2022-12-15T10:38:50.396Z,21.30
2022-12-15T10:41:38.077Z,21.27
2022-12-15T10:44:31.895Z,21.38
2022-12-15T10:47:21.681Z,19.08
2022-12-15T10:49:49.366Z,21.02
2022-12-15T10:52:22.148Z,19.52
2022-12-15T10:54:51.106Z,24.38
2022-12-15T10:57:23.692Z,22.58
2022-12-15T10:59:51.131Z,25.30
2022-12-15T11:02:25.286Z,20.58
2022-12-15T11:04:58.271Z,25.58
2022-12-15T11:07:35.436Z,15.98
2022-12-15T11:10:15.376Z,23.17
2022-12-15T11:12:52.242Z,21.50
2022-12-15T11:15:22.279Z,19.90
2022-12-15T11:18:07.744Z,13.98
2022-12-15T11:20:40.080Z,19.40
2022-12-15T11:23:20.823Z,23.38
2022-12-15T11:26:20.464Z,13.95
2022-12-15T11:28:59.940Z,25.80
2022-12-15T11:31:43.526Z,22.63
2022-12-15T11:34:18.229Z,21.42
2022-12-15T11:37:10.210Z,24.00
2022-12-15T11:40:15.726Z,20.33
2022-12-15T11:43:14.527Z,23.65
2022-12-15T11:45:44.715Z,22.35
2022-12-15T11:48:17.400Z,26.27
2022-12-15T11:51:35.103Z,28.92
2022-12-15T11:54:11.211Z,25.10
2022-12-15T11:57:01.991Z,23.48
2022-12-15T11:59:38.604Z,22.45
2022-12-15T12:02:30.754Z,21.60
2022-12-15T12:05:40.670Z,23.75
2022-12-15T12:08:19.529Z,24.58
2022-12-15T12:10:46.636Z,16.33
2022-12-15T12:13:24.172Z,23.33
2022-12-15T12:16:30.174Z,21.65
2022-12-15T12:19:04.673Z,27.98
2022-12-15T12:21:50.909Z,26.67
2022-12-15T12:24:36.628Z,17.27
2022-12-15T12:27:42.854Z,23.02
2022-12-15T12:30:44.853Z,20.10
2022-12-15T12:33:40.103Z,19.88
2022-12-15T12:36:12.509Z,24.40
2022-12-15T12:38:50.456Z,20.23
2022-12-15T12:41:18.824Z,23.70
2022-12-15T12:43:56.596Z,19.05
2022-12-15T12:46:50.727Z,21.88
2022-12-15T12:50:04.678Z,24.23
2022-12-15T12:52:35.759Z,23.85
2022-12-15T12:55:30.278Z,20.00
2022-12-15T12:57:57.841Z,11.30
2022-12-15T13:00:28.818Z,14.35
2022-12-15T13:03:16.596Z,20.58
2022-12-15T13:05:50.425Z,20.08
2022-12-15T13:08:27.365Z,13.75
2022-12-15T13:10:56.437Z,17.80
2022-12-15T13:13:30.366Z,21.70
2022-12-15T13:16:11.046Z,14.70
2022-12-15T13:19:02.088Z,25.77
2022-12-15T13:21:44.932Z,22.00
2022-12-15T13:24:33.334Z,14.43
2022-12-15T13:27:11.150Z,20.23
2022-12-15T13:30:01.925Z,24.95
2022-12-15T13:32:44.805Z,17.35
2022-12-15T13:35:12.520Z,14.38
2022-12-15T13:37:42.687Z,22.38
2022-12-15T13:40:26.493Z,15.68
2022-12-15T13:43:29.618Z,17.85
2022-12-15T13:46:00.330Z,14.38
2022-12-15T13:49:03.789Z,15.77
2022-12-15T13:51:35.447Z,15.30
2022-12-15T13:54:15.585Z,17.98
2022-12-15T13:57:07.110Z,16.77
2022-12-15T13:59:49.313Z,18.95
2022-12-15T14:02:49.312Z,18.00
2022-12-15T14:05:22.665Z,19.85
2022-12-15T14:08:02.028Z,18.00
2022-12-15T14:10:42.677Z,20.13
2022-12-15T14:13:16.227Z,17.05
2022-12-15T14:15:47.507Z,17.33
2022-12-15T14:18:31.349Z,20.58
2022-12-15T14:21:00.245Z,21.37
2022-12-15T14:23:52.494Z,20.67
2022-12-15T14:26:31.845Z,20.20
2022-12-15T14:29:02.774Z,18.90
2022-12-15T14:31:30.962Z,18.67
2022-12-15T14:34:06.459Z,30.40
2022-12-15T14:36:34.090Z,16.00
2022-12-15T14:39:05.700Z,16.83
2022-12-15T14:41:39.126Z,21.65
2022-12-15T14:44:32.108Z,18.98
2022-12-15T14:47:07.118Z,24.75
2022-12-15T14:49:45.462Z,30.60
2022-12-15T14:52:33.969Z,25.52
2022-12-15T14:55:03.857Z,22.57
2022-12-15T14:57:46.649Z,23.63
2022-12-15T15:00:30.389Z,21.83
2022-12-15T15:03:18.936Z,21.48
2022-12-15T15:05:50.328Z,25.55
2022-12-15T15:08:26.831Z,20.27
2022-12-15T15:10:56.450Z,21.40
2022-12-15T15:13:27.497Z,24.00
2022-12-15T15:15:57.391Z,23.00
2022-12-15T15:18:28.333Z,20.67
2022-12-15T15:21:01.512Z,20.80
2022-12-15T15:23:28.754Z,32.75
2022-12-15T15:26:10.733Z,19.05
2022-12-15T15:28:39.071Z,17.05
2022-12-15T15:31:24.920Z,25.73
2022-12-15T15:33:53.006Z,29.48
2022-12-15T15:36:22.184Z,21.70
2022-12-15T15:38:49.372Z,25.48
2022-12-15T15:41:28.919Z,21.43
2022-12-15T15:43:59.330Z,20.43
2022-12-15T15:46:30.041Z,21.70
2022-12-15T15:49:01.308Z,21.80
2022-12-15T15:51:30.543Z,16.63
2022-12-15T15:54:07.247Z,20.00
2022-12-15T15:56:35.159Z,18.02
2022-12-15T15:59:14.674Z,16.77
2022-12-15T16:01:42.107Z,20.92
2022-12-15T16:04:09.340Z,13.13
2022-12-15T16:06:39.673Z,20.30
2022-12-15T16:09:12.873Z,17.90
2022-12-15T16:11:39.993Z,20.92
2022-12-15T16:14:15.825Z,21.65
2022-12-15T16:16:43.585Z,18.60
2022-12-15T16:19:12.378Z,18.95
2022-12-15T16:21:40.633Z,19.37
2022-12-15T16:24:17.842Z,24.37
2022-12-15T16:26:50.528Z,16.70
2022-12-15T16:29:20.850Z,21.42
2022-12-15T16:31:48.238Z,9.02
2022-12-15T16:34:17.178Z,22.50
2022-12-15T16:36:45.618Z,23.00
2022-12-15T16:39:35.453Z,21.10
2022-12-15T16:42:06.515Z,28.93
2022-12-15T16:44:36.660Z,26.65
2022-12-15T16:47:03.833Z,14.60
2022-12-15T16:49:35.066Z,18.95
2022-12-15T16:52:05.276Z,23.30
2022-12-15T16:54:32.550Z,24.33
2022-12-15T16:57:00.379Z,14.27
2022-12-15T16:59:33.556Z,21.05
2022-12-15T17:02:04.656Z,21.40
2022-12-15T17:04:31.934Z,26.90
2022-12-15T17:06:59.274Z,18.67
2022-12-15T17:09:26.783Z,22.77
2022-12-15T17:11:54.476Z,17.08
2022-12-15T17:14:21.514Z,24.92
2022-12-15T17:16:51.597Z,23.48
2022-12-15T17:19:21.260Z,19.50
2022-12-15T17:21:52.056Z,23.13
2022-12-15T17:24:21.226Z,18.10
2022-12-15T17:26:48.431Z,19.80
2022-12-15T17:29:25.402Z,23.03
2022-12-15T17:31:52.542Z,22.33
2022-12-15T17:34:26.342Z,23.92
2022-12-15T17:36:54.257Z,15.40
2022-12-15T17:39:22.679Z,22.90
2022-12-15T17:42:05.963Z,20.42
2022-12-15T17:44:37.802Z,22.73
2022-12-15T17:47:07.843Z,16.42
2022-12-15T17:49:38.312Z,19.83
2022-12-15T17:52:29.080Z,24.48
2022-12-15T17:54:57.460Z,20.17
2022-12-15T17:57:25.698Z,22.70
2022-12-15T17:59:53.421Z,18.23
2022-12-15T18:02:20.661Z,13.75
2022-12-15T18:04:47.761Z,19.13
2022-12-15T18:07:20.575Z,17.52
2022-12-15T18:09:49.120Z,20.33
2022-12-15T18:12:22.492Z,24.27
2022-12-15T18:14:50.131Z,24.15
2022-12-15T18:17:17.321Z,22.02
2022-12-15T18:19:45.061Z,24.70
2022-12-15T18:22:22.222Z,22.95
2022-12-15T18:24:51.815Z,18.38
2022-12-15T18:27:25.320Z,20.20
2022-12-15T18:29:53.198Z,18.80
2022-12-15T18:32:22.797Z,21.88
2022-12-15T18:34:50.653Z,19.80
2022-12-15T18:37:23.115Z,18.70
2022-12-15T18:39:51.104Z,19.88
2022-12-15T18:42:23.203Z,20.83
2022-12-15T18:44:53.697Z,22.13
2022-12-15T18:47:23.554Z,22.30
2022-12-15T18:49:51.313Z,29.35
2022-12-15T18:52:21.245Z,24.80
2022-12-15T18:54:50.027Z,25.10
2022-12-15T18:57:33.389Z,21.33
2022-12-15T19:02:36.791Z,31.58
2022-12-15T19:05:04.168Z,32.78
2022-12-15T19:07:32.043Z,26.00
2022-12-15T19:10:01.095Z,37.28
2022-12-15T19:12:30.638Z,26.95
2022-12-15T19:14:57.826Z,25.88
2022-12-15T19:17:43.419Z,34.78
2022-12-15T19:20:38.378Z,25.10
2022-12-15T19:23:06.952Z,19.70
2022-12-15T19:25:35.196Z,34.08
2022-12-15T19:28:02.314Z,32.35
2022-12-15T19:30:41.610Z,19.95
2022-12-15T19:33:13.889Z,34.40
2022-12-15T19:35:43.903Z,39.78
2022-12-15T19:38:20.901Z,27.02
2022-12-15T19:40:48.666Z,31.40
2022-12-15T19:43:17.493Z,34.45
2022-12-15T19:45:44.749Z,30.48
2022-12-15T19:48:12.743Z,33.42
2022-12-15T19:50:41.311Z,28.70
2022-12-15T19:53:24.679Z,23.17
2022-12-15T19:55:55.142Z,30.13
2022-12-15T19:58:33.623Z,26.83
2022-12-15T20:01:05.135Z,25.80
2022-12-15T20:03:33.550Z,29.38
2022-12-15T20:06:02.463Z,25.55
2022-12-15T20:08:42.046Z,36.88
2022-12-15T20:11:26.766Z,26.75
2022-12-15T20:13:54.693Z,32.17
2022-12-15T20:16:22.612Z,25.08
2022-12-15T20:18:52.645Z,33.15
2022-12-15T20:21:22.744Z,28.55
2022-12-15T20:23:57.987Z,25.92
2022-12-15T20:26:30.479Z,36.30
2022-12-15T20:28:58.243Z,27.38
2022-12-15T20:31:25.833Z,25.35
2022-12-15T20:33:53.642Z,24.33
2022-12-15T20:36:27.691Z,33.13
2022-12-15T20:38:55.741Z,37.45
2022-12-15T20:41:25.966Z,32.42
2022-12-15T20:44:00.246Z,23.55
2022-12-15T20:46:34.038Z,39.28
2022-12-15T20:49:02.257Z,32.55
2022-12-15T20:51:33.166Z,28.02
2022-12-15T20:54:02.520Z,32.83
2022-12-15T20:56:30.500Z,30.25
2022-12-15T20:59:01.120Z,27.52
2022-12-15T21:01:35.383Z,39.03
2022-12-15T21:04:18.280Z,33.45
2022-12-15T21:06:48.642Z,29.45
2022-12-15T21:09:20.832Z,28.00
2022-12-15T21:11:48.718Z,33.92
2022-12-15T21:14:23.930Z,24.52
2022-12-15T21:16:51.613Z,20.75
2022-12-15T21:19:20.737Z,25.60
2022-12-15T21:21:55.312Z,28.20
2022-12-15T21:24:28.613Z,33.47
2022-12-15T21:26:56.369Z,29.58
2022-12-15T21:29:26.402Z,39.13
2022-12-15T21:31:53.599Z,27.40
2022-12-15T21:34:21.024Z,32.80
2022-12-15T21:36:54.761Z,27.15
2022-12-15T21:39:29.890Z,33.72
2022-12-15T21:42:18.410Z,29.27
2022-12-15T21:44:45.865Z,38.63
2022-12-15T21:47:47.687Z,29.38
2022-12-15T21:50:15.965Z,26.60
2022-12-15T21:52:44.550Z,17.05
2022-12-15T21:55:17.113Z,24.00
2022-12-15T21:57:45.003Z,24.48
2022-12-15T22:00:14.503Z,25.90
2022-12-15T22:02:42.167Z,15.00
2022-12-15T22:05:32.660Z,29.50
2022-12-15T22:08:18.503Z,28.92
2022-12-15T22:10:48.929Z,28.80
2022-12-15T22:13:22.309Z,32.25
2022-12-15T22:15:54.691Z,30.10
2022-12-15T22:18:22.688Z,17.95
2022-12-15T22:20:50.748Z,39.08
2022-12-15T22:23:19.371Z,22.77
2022-12-15T22:25:49.435Z,24.58
2022-12-15T22:28:25.920Z,21.25
2022-12-15T22:30:54.822Z,18.73
2022-12-15T22:33:24.735Z,33.97
2022-12-15T22:35:54.910Z,18.05
2022-12-15T22:38:23.776Z,29.17
2022-12-15T22:40:53.804Z,24.50
2022-12-15T22:43:43.684Z,29.17
2022-12-15T22:46:13.993Z,30.58
2022-12-15T22:48:44.314Z,28.00
2022-12-15T22:51:14.600Z,21.80
2022-12-15T22:53:42.467Z,25.13
2022-12-15T22:56:36.909Z,29.25
2022-12-15T22:59:08.909Z,21.95
2022-12-15T23:01:36.257Z,22.08
2022-12-15T23:04:04.418Z,31.40
2022-12-15T23:06:31.745Z,18.90
2022-12-15T23:08:58.893Z,21.23
2022-12-15T23:11:37.881Z,20.73
2022-12-15T23:14:11.224Z,27.50
2022-12-15T23:19:09.818Z,29.00
2022-12-15T23:21:37.042Z,27.73
2022-12-15T23:24:04.219Z,27.65
2022-12-15T23:26:31.414Z,25.50
2022-12-15T23:28:58.516Z,23.63
2022-12-15T23:31:25.578Z,24.38
2022-12-15T23:33:52.745Z,29.23
2022-12-15T23:36:19.913Z,24.75
2022-12-15T23:38:47.005Z,22.67
2022-12-15T23:41:18.082Z,21.25
2022-12-15T23:43:45.202Z,29.13
2022-12-15T23:46:12.740Z,17.63
2022-12-15T23:48:43.100Z,25.48
2022-12-15T23:51:19.849Z,20.50
2022-12-15T23:53:48.018Z,22.15
2022-12-15T23:56:21.034Z,16.73
2022-12-15T23:58:53.960Z,19.33
